createdAt,value
2018-06-30T00:00:09.389Z,69.24
2018-06-30T00:02:38.083Z,70.25
2018-06-30T00:05:06.748Z,70.06
2018-06-30T00:07:35.192Z,69.51
2018-06-30T00:10:03.484Z,69.22
2018-06-30T00:12:31.583Z,69.84
2018-06-30T00:15:00.061Z,69.69
2018-06-30T00:17:28.517Z,69.52
2018-06-30T00:19:56.933Z,70.46
2018-06-30T00:22:25.373Z,70.64
2018-06-30T00:24:53.866Z,69.75
2018-06-30T00:27:28.375Z,69.43
2018-06-30T00:29:57.652Z,70.15
2018-06-30T00:32:26.345Z,70.03
2018-06-30T00:34:55.001Z,69.90
2018-06-30T00:37:23.517Z,70.72
2018-06-30T00:39:52.193Z,71.07
2018-06-30T00:42:20.481Z,70.28
2018-06-30T00:44:48.925Z,69.89
2018-06-30T00:47:17.063Z,71.02
2018-06-30T00:49:45.177Z,70.26
2018-06-30T00:52:14.059Z,70.07
2018-06-30T00:54:42.693Z,70.47
2018-06-30T00:57:11.137Z,69.99
2018-06-30T00:59:39.245Z,70.37
2018-06-30T01:02:07.530Z,70.64
2018-06-30T01:04:35.973Z,70.60
2018-06-30T01:07:04.302Z,70.69
2018-06-30T01:09:32.418Z,71.52
2018-06-30T01:12:00.905Z,71.10
2018-06-30T01:14:29.338Z,71.57
2018-06-30T01:16:58.061Z,71.79
2018-06-30T01:19:26.605Z,71.31
2018-06-30T01:21:55.338Z,71.87
2018-06-30T01:24:23.456Z,71.58
2018-06-30T01:26:52.301Z,70.62
2018-06-30T01:29:20.430Z,71.77
2018-06-30T01:31:48.881Z,71.19
2018-06-30T01:34:17.582Z,71.95
2018-06-30T01:36:46.217Z,71.99
2018-06-30T01:39:14.674Z,71.70
2018-06-30T01:41:43.120Z,71.88
2018-06-30T01:44:11.570Z,71.81
2018-06-30T01:46:40.026Z,72.57
2018-06-30T01:49:08.499Z,72.32
2018-06-30T01:51:36.853Z,72.61
2018-06-30T01:54:05.538Z,71.96
2018-06-30T01:56:34.224Z,72.50
2018-06-30T01:59:02.888Z,72.68
2018-06-30T02:01:30.997Z,72.05
2018-06-30T02:03:59.121Z,73.16
2018-06-30T02:06:27.818Z,72.63
2018-06-30T02:08:55.948Z,73.23
2018-06-30T02:11:24.390Z,73.06
2018-06-30T02:13:52.836Z,73.07
2018-06-30T02:16:21.301Z,73.18
2018-06-30T02:18:49.789Z,73.40
2018-06-30T02:21:18.393Z,74.01
2018-06-30T02:23:46.526Z,73.89
2018-06-30T02:26:14.614Z,73.63
2018-06-30T02:28:43.069Z,74.70
2018-06-30T02:31:11.385Z,75.68
2018-06-30T02:33:40.019Z,75.45
2018-06-30T02:36:08.462Z,75.29
2018-06-30T02:38:37.137Z,75.32
2018-06-30T02:41:05.249Z,73.94
2018-06-30T02:43:33.706Z,74.84
2018-06-30T02:46:02.140Z,74.25
2018-06-30T02:48:30.716Z,73.96
2018-06-30T02:50:59.083Z,74.33
2018-06-30T02:53:27.824Z,73.37
2018-06-30T02:55:56.178Z,74.15
2018-06-30T02:58:24.829Z,73.91
2018-06-30T03:00:53.162Z,74.22
2018-06-30T03:03:21.284Z,74.39
2018-06-30T03:05:49.694Z,74.02
2018-06-30T03:08:17.819Z,74.35
2018-06-30T03:10:46.354Z,74.54
2018-06-30T03:13:14.928Z,74.70
2018-06-30T03:15:43.579Z,74.93
2018-06-30T03:18:12.049Z,73.44
2018-06-30T03:20:40.369Z,73.79
2018-06-30T03:23:09.017Z,73.61
2018-06-30T03:25:37.141Z,73.37
2018-06-30T03:28:05.281Z,73.76
2018-06-30T03:30:33.753Z,73.92
2018-06-30T03:33:02.386Z,72.20
2018-06-30T03:35:30.849Z,72.85
2018-06-30T03:37:59.270Z,72.45
2018-06-30T03:40:27.630Z,71.87
2018-06-30T03:42:55.968Z,71.25
2018-06-30T03:45:24.134Z,71.08
2018-06-30T03:47:52.580Z,71.00
2018-06-30T03:50:21.030Z,71.60
2018-06-30T03:52:49.469Z,71.39
2018-06-30T03:55:17.888Z,70.33
2018-06-30T03:57:46.325Z,70.89
2018-06-30T04:00:14.765Z,70.86
2018-06-30T04:02:43.211Z,71.20
2018-06-30T04:05:11.326Z,69.76
2018-06-30T04:07:40.006Z,68.91
2018-06-30T04:10:08.458Z,69.05
2018-06-30T04:12:36.890Z,69.04
2018-06-30T04:15:05.627Z,69.06
2018-06-30T04:17:33.726Z,68.75
2018-06-30T04:20:02.187Z,68.87
2018-06-30T04:22:30.625Z,68.86
2018-06-30T04:24:59.080Z,68.32
2018-06-30T04:27:27.536Z,68.31
2018-06-30T04:29:55.652Z,67.66
2018-06-30T04:32:23.754Z,67.20
2018-06-30T04:34:52.211Z,67.79
2018-06-30T04:37:20.314Z,67.38
2018-06-30T04:39:48.781Z,68.81
2018-06-30T04:42:17.216Z,67.79
2018-06-30T04:44:45.334Z,67.68
2018-06-30T04:47:13.445Z,67.94
2018-06-30T04:49:41.894Z,66.27
2018-06-30T04:52:10.374Z,66.32
2018-06-30T04:54:38.844Z,66.11
2018-06-30T04:57:07.190Z,66.24
2018-06-30T04:59:35.452Z,66.27
2018-06-30T05:02:03.574Z,65.03
2018-06-30T05:04:31.857Z,64.82
2018-06-30T05:07:00.569Z,65.06
2018-06-30T05:09:28.712Z,65.45
2018-06-30T05:11:58.984Z,65.78
2018-06-30T05:14:27.677Z,65.65
2018-06-30T05:16:56.017Z,65.25
2018-06-30T05:19:24.477Z,66.03
2018-06-30T05:21:52.942Z,65.23
2018-06-30T05:24:21.049Z,64.67
2018-06-30T05:26:49.173Z,64.98
2018-06-30T05:29:17.617Z,63.88
2018-06-30T05:31:45.750Z,64.45
2018-06-30T05:34:13.859Z,64.45
2018-06-30T05:36:41.968Z,63.97
2018-06-30T05:39:19.642Z,64.31
2018-06-30T05:41:48.101Z,63.30
2018-06-30T05:44:16.977Z,63.18
2018-06-30T05:46:45.449Z,61.99
2018-06-30T05:49:14.086Z,62.19
2018-06-30T05:51:42.209Z,61.97
2018-06-30T05:54:10.657Z,61.31
2018-06-30T05:56:38.797Z,60.37
2018-06-30T05:59:07.241Z,61.19
2018-06-30T06:01:35.732Z,60.01
2018-06-30T06:04:04.177Z,59.46
2018-06-30T06:06:32.640Z,60.44
2018-06-30T06:09:00.749Z,61.19
2018-06-30T06:11:29.205Z,60.14
2018-06-30T06:13:57.650Z,59.59
2018-06-30T06:16:26.105Z,60.27
2018-06-30T06:18:54.538Z,59.87
2018-06-30T06:21:22.660Z,59.46
2018-06-30T06:23:50.773Z,59.14
2018-06-30T06:26:19.418Z,58.30
2018-06-30T06:28:47.846Z,57.68
2018-06-30T06:31:16.318Z,57.69
2018-06-30T06:33:44.777Z,57.84
2018-06-30T06:36:13.466Z,58.17
2018-06-30T06:38:41.900Z,57.46
2018-06-30T06:41:10.356Z,56.35
2018-06-30T06:43:38.797Z,56.18
2018-06-30T06:46:07.498Z,56.25
2018-06-30T06:48:35.931Z,54.00
2018-06-30T06:51:04.076Z,53.99
2018-06-30T06:53:32.373Z,54.26
2018-06-30T06:56:00.841Z,53.87
2018-06-30T06:58:29.521Z,54.47
2018-06-30T07:00:57.934Z,54.74
2018-06-30T07:03:26.669Z,53.97
2018-06-30T07:05:55.210Z,53.22
2018-06-30T07:08:23.322Z,53.10
2018-06-30T07:10:51.452Z,51.95
2018-06-30T07:13:20.125Z,51.93
2018-06-30T07:15:48.256Z,51.09
2018-06-30T07:18:16.933Z,50.87
2018-06-30T07:20:45.529Z,51.12
2018-06-30T07:23:14.093Z,51.25
2018-06-30T07:25:42.226Z,51.40
2018-06-30T07:28:10.366Z,50.98
2018-06-30T07:30:38.775Z,50.72
2018-06-30T07:33:07.829Z,49.62
2018-06-30T07:35:36.173Z,49.33
2018-06-30T07:38:04.433Z,49.41
2018-06-30T07:40:32.957Z,48.68
2018-06-30T07:43:01.649Z,48.91
2018-06-30T07:45:29.765Z,48.76
2018-06-30T07:47:58.238Z,48.89
2018-06-30T07:50:26.408Z,47.42
2018-06-30T07:52:54.920Z,47.79
2018-06-30T07:55:23.299Z,46.79
2018-06-30T07:57:51.433Z,47.52
2018-06-30T08:00:19.972Z,47.03
2018-06-30T08:02:48.412Z,47.73
2018-06-30T08:05:16.840Z,47.11
2018-06-30T08:07:45.296Z,46.54
2018-06-30T08:10:13.391Z,45.95
2018-06-30T08:12:41.870Z,45.63
2018-06-30T08:15:10.297Z,46.08
2018-06-30T08:17:38.920Z,46.49
2018-06-30T08:20:07.361Z,45.44
2018-06-30T08:22:35.661Z,45.39
2018-06-30T08:25:03.794Z,44.53
2018-06-30T08:27:32.259Z,44.63
2018-06-30T08:30:00.364Z,44.88
2018-06-30T08:32:28.473Z,45.22
2018-06-30T08:34:56.981Z,45.09
2018-06-30T08:37:25.433Z,44.82
2018-06-30T08:39:54.115Z,43.15
2018-06-30T08:42:22.234Z,43.64
2018-06-30T08:44:50.685Z,43.88
2018-06-30T08:47:18.804Z,44.73
2018-06-30T08:49:47.371Z,42.82
2018-06-30T08:52:15.833Z,42.54
2018-06-30T08:54:43.934Z,41.86
2018-06-30T08:57:12.712Z,41.96
2018-06-30T08:59:41.473Z,41.16
2018-06-30T09:02:09.736Z,41.44
2018-06-30T09:04:38.172Z,41.35
2018-06-30T09:07:06.288Z,41.52
2018-06-30T09:09:34.950Z,41.82
2018-06-30T09:12:03.892Z,40.34
2018-06-30T09:14:32.360Z,40.83
2018-06-30T09:17:00.817Z,40.82
2018-06-30T09:19:28.932Z,39.76
2018-06-30T09:21:57.061Z,40.16
2018-06-30T09:24:25.157Z,39.27
2018-06-30T09:26:53.517Z,40.17
2018-06-30T09:29:21.624Z,41.16
2018-06-30T09:31:50.313Z,39.41
2018-06-30T09:34:18.433Z,39.89
2018-06-30T09:36:46.773Z,40.13
2018-06-30T09:39:15.102Z,39.72
2018-06-30T09:41:43.200Z,38.96
2018-06-30T09:44:11.349Z,38.69
2018-06-30T09:46:39.760Z,38.99
2018-06-30T09:49:08.232Z,39.74
2018-06-30T09:51:36.686Z,37.91
2018-06-30T09:54:04.829Z,37.08
2018-06-30T09:56:33.248Z,37.47
2018-06-30T09:59:01.703Z,36.89
2018-06-30T10:01:30.052Z,37.59
2018-06-30T10:04:01.951Z,37.92
2018-06-30T10:06:30.557Z,38.00
2018-06-30T10:08:58.904Z,38.43
2018-06-30T10:11:27.349Z,39.79
2018-06-30T10:13:55.809Z,37.96
2018-06-30T10:16:24.269Z,37.71
2018-06-30T10:18:52.400Z,37.09
2018-06-30T10:21:20.504Z,37.70
2018-06-30T10:23:48.959Z,38.06
2018-06-30T10:26:17.393Z,38.00
2018-06-30T10:28:45.509Z,37.65
2018-06-30T10:31:13.998Z,37.12
2018-06-30T10:33:42.293Z,36.59
2018-06-30T10:36:10.786Z,36.08
2018-06-30T10:38:39.247Z,35.75
2018-06-30T10:41:07.391Z,36.88
2018-06-30T10:43:36.086Z,36.60
2018-06-30T10:46:04.207Z,36.52
2018-06-30T10:48:32.888Z,36.21
2018-06-30T10:51:01.041Z,35.65
2018-06-30T10:53:29.932Z,35.75
2018-06-30T10:55:58.414Z,35.09
2018-06-30T10:58:27.311Z,34.50
2018-06-30T11:00:55.750Z,35.80
2018-06-30T11:03:24.253Z,36.28
2018-06-30T11:05:52.778Z,36.09
2018-06-30T11:08:21.640Z,36.92
2018-06-30T11:10:50.547Z,35.72
2018-06-30T11:13:19.201Z,36.20
2018-06-30T11:15:47.629Z,35.72
2018-06-30T11:18:16.058Z,35.31
2018-06-30T11:20:44.725Z,35.26
2018-06-30T11:23:13.288Z,36.28
2018-06-30T11:25:41.387Z,34.97
2018-06-30T11:28:09.789Z,36.02
2018-06-30T11:30:38.689Z,35.43
2018-06-30T11:33:07.153Z,35.76
2018-06-30T11:35:35.283Z,35.36
2018-06-30T11:38:03.749Z,36.54
2018-06-30T11:40:32.486Z,35.56
2018-06-30T11:43:01.010Z,35.88
2018-06-30T11:45:29.371Z,36.09
2018-06-30T11:47:57.477Z,35.54
2018-06-30T11:50:25.664Z,35.42
2018-06-30T11:52:54.712Z,35.33
2018-06-30T11:55:23.133Z,35.19
2018-06-30T11:57:51.237Z,34.65
2018-06-30T12:00:19.705Z,35.18
2018-06-30T12:02:48.873Z,34.76
2018-06-30T12:05:17.392Z,36.39
2018-06-30T12:07:46.168Z,35.26
2018-06-30T12:10:14.820Z,34.84
2018-06-30T12:12:43.745Z,33.95
2018-06-30T12:15:12.193Z,34.77
2018-06-30T12:17:40.307Z,35.20
2018-06-30T12:20:09.421Z,34.49
2018-06-30T12:22:37.765Z,33.97
2018-06-30T12:25:06.182Z,34.00
2018-06-30T12:27:34.885Z,34.00
2018-06-30T12:30:03.597Z,33.42
2018-06-30T12:32:32.033Z,34.54
2018-06-30T12:35:00.613Z,32.84
2018-06-30T12:37:29.050Z,33.15
2018-06-30T12:39:57.529Z,33.84
2018-06-30T12:42:25.885Z,33.57
2018-06-30T12:44:54.618Z,33.79
2018-06-30T12:47:23.244Z,33.73
2018-06-30T12:49:52.269Z,33.98
2018-06-30T12:52:20.429Z,34.08
2018-06-30T12:54:49.155Z,34.35
2018-06-30T12:57:17.784Z,33.12
2018-06-30T12:59:46.227Z,33.96
2018-06-30T13:02:14.895Z,32.64
2018-06-30T13:04:43.241Z,33.42
2018-06-30T13:07:12.264Z,33.98
2018-06-30T13:09:40.714Z,33.23
2018-06-30T13:12:09.566Z,33.49
2018-06-30T13:14:38.255Z,33.88
2018-06-30T13:17:06.374Z,33.73
2018-06-30T13:19:34.641Z,32.65
2018-06-30T13:22:02.760Z,33.30
2018-06-30T13:24:31.481Z,33.82
2018-06-30T13:27:00.174Z,32.81
2018-06-30T13:29:28.308Z,32.72
2018-06-30T13:31:56.759Z,32.87
2018-06-30T13:34:25.293Z,33.20
2018-06-30T13:36:53.879Z,34.00
2018-06-30T13:39:23.245Z,34.36
2018-06-30T13:41:51.353Z,33.09
2018-06-30T13:44:19.826Z,32.98
2018-06-30T13:46:48.260Z,32.13
2018-06-30T13:49:16.668Z,32.84
2018-06-30T13:51:44.781Z,31.20
2018-06-30T13:57:03.767Z,31.32
2018-06-30T13:59:32.448Z,30.88
2018-06-30T14:02:00.536Z,31.42
2018-06-30T14:04:29.083Z,31.56
2018-06-30T14:06:57.470Z,31.20
2018-06-30T14:09:26.023Z,31.59
2018-06-30T14:11:54.355Z,31.35
2018-06-30T14:14:22.919Z,32.43
2018-06-30T14:16:51.556Z,31.59
2018-06-30T14:19:20.261Z,31.04
2018-06-30T14:21:48.880Z,30.61
2018-06-30T14:24:17.303Z,30.25
2018-06-30T14:26:45.668Z,31.40
2018-06-30T14:29:13.928Z,31.40
2018-06-30T14:31:43.792Z,31.96
2018-06-30T14:34:12.223Z,32.06
2018-06-30T14:36:40.570Z,32.00
2018-06-30T14:39:11.393Z,32.20
2018-06-30T14:41:39.805Z,31.92
2018-06-30T14:44:07.982Z,31.07
2018-06-30T14:46:36.723Z,31.51
2018-06-30T14:49:05.696Z,30.75
2018-06-30T14:51:34.517Z,30.71
2018-06-30T14:54:03.408Z,30.00
2018-06-30T14:56:32.023Z,30.54
2018-06-30T14:59:00.352Z,30.11
2018-06-30T15:01:28.732Z,30.98
2018-06-30T15:03:56.823Z,30.95
2018-06-30T15:06:25.261Z,30.09
2018-06-30T15:08:54.188Z,29.96
2018-06-30T15:11:22.302Z,30.43
2018-06-30T15:13:51.133Z,29.89
2018-06-30T15:16:19.449Z,29.38
2018-06-30T15:18:48.647Z,29.82
2018-06-30T15:21:17.148Z,29.80
2018-06-30T15:23:45.264Z,29.48
2018-06-30T15:26:13.952Z,30.75
2018-06-30T15:28:42.233Z,30.96
2018-06-30T15:31:10.340Z,29.86
2018-06-30T15:33:38.449Z,30.06
2018-06-30T15:36:06.680Z,29.88
2018-06-30T15:38:35.168Z,30.55
2018-06-30T15:41:03.633Z,30.62
2018-06-30T15:43:32.304Z,30.82
2018-06-30T15:46:01.252Z,29.61
2018-06-30T15:48:29.692Z,30.62
2018-06-30T15:50:58.399Z,29.95
2018-06-30T15:53:26.892Z,31.01
2018-06-30T15:55:55.275Z,30.21
2018-06-30T15:58:23.544Z,29.73
2018-06-30T16:00:52.552Z,30.69
2018-06-30T16:03:20.996Z,30.79
2018-06-30T16:05:49.383Z,30.76
2018-06-30T16:08:17.887Z,30.77
2018-06-30T16:10:46.607Z,30.84
2018-06-30T16:13:15.036Z,30.93
2018-06-30T16:15:44.869Z,31.39
2018-06-30T16:18:13.207Z,30.12
2018-06-30T16:20:41.736Z,30.12
2018-06-30T16:23:10.675Z,30.47
2018-06-30T16:25:39.123Z,31.25
2018-06-30T16:28:07.708Z,31.46
2018-06-30T16:30:36.168Z,31.57
2018-06-30T16:33:04.660Z,31.29
2018-06-30T16:35:32.931Z,32.37
2018-06-30T16:38:01.894Z,32.49
2018-06-30T16:40:30.617Z,32.56
2018-06-30T16:42:58.736Z,31.86
2018-06-30T16:45:27.156Z,32.27
2018-06-30T16:47:55.948Z,32.54
2018-06-30T16:50:24.284Z,32.02
2018-06-30T16:52:53.195Z,32.29
2018-06-30T16:55:21.385Z,33.30
2018-06-30T16:57:49.755Z,32.42
2018-06-30T17:00:18.431Z,33.29
2018-06-30T17:02:46.646Z,32.75
2018-06-30T17:05:14.981Z,33.22
2018-06-30T17:07:44.976Z,33.91
2018-06-30T17:10:13.721Z,33.10
2018-06-30T17:12:42.872Z,33.17
2018-06-30T17:15:11.747Z,33.70
2018-06-30T17:17:40.019Z,34.41
2018-06-30T17:20:08.533Z,33.14
2018-06-30T17:22:37.121Z,33.64
2018-06-30T17:25:05.424Z,33.66
2018-06-30T17:27:33.778Z,33.65
2018-06-30T17:30:02.922Z,33.98
2018-06-30T17:32:32.091Z,33.65
2018-06-30T17:35:00.695Z,32.95
2018-06-30T17:37:28.848Z,33.44
2018-06-30T17:39:56.939Z,34.20
2018-06-30T17:42:25.758Z,33.87
2018-06-30T17:44:54.080Z,33.73
2018-06-30T17:47:22.482Z,34.11
2018-06-30T17:49:50.857Z,33.44
2018-06-30T17:52:19.619Z,34.31
2018-06-30T17:54:48.208Z,34.29
2018-06-30T17:57:16.500Z,34.51
2018-06-30T17:59:44.940Z,35.12
2018-06-30T18:02:13.092Z,34.63
2018-06-30T18:04:46.940Z,34.52
2018-06-30T18:07:15.132Z,35.35
2018-06-30T18:09:47.456Z,35.69
2018-06-30T18:12:16.211Z,35.25
2018-06-30T18:14:45.348Z,35.45
2018-06-30T18:17:13.481Z,35.50
2018-06-30T18:19:42.058Z,35.52
2018-06-30T18:22:10.403Z,35.45
2018-06-30T18:24:38.967Z,36.18
2018-06-30T18:27:07.480Z,35.37
2018-06-30T18:29:36.019Z,36.16
2018-06-30T18:32:04.375Z,36.20
2018-06-30T18:34:33.074Z,36.24
2018-06-30T18:37:01.944Z,36.30
2018-06-30T18:39:30.509Z,36.20
2018-06-30T18:41:59.016Z,35.85
2018-06-30T18:44:27.121Z,36.08
2018-06-30T18:46:55.601Z,37.20
2018-06-30T18:49:23.940Z,36.93
2018-06-30T18:51:52.672Z,37.48
2018-06-30T18:54:21.106Z,36.83
2018-06-30T18:56:49.510Z,37.26
2018-06-30T18:59:18.245Z,37.67
2018-06-30T19:01:47.015Z,37.65
2018-06-30T19:04:15.976Z,38.05
2018-06-30T19:06:45.546Z,38.03
2018-06-30T19:09:14.423Z,37.99
2018-06-30T19:11:42.764Z,38.43
2018-06-30T19:14:11.084Z,38.15
2018-06-30T19:16:39.396Z,38.90
2018-06-30T19:19:07.771Z,39.68
2018-06-30T19:21:36.387Z,39.65
2018-06-30T19:24:04.944Z,39.12
2018-06-30T19:26:33.585Z,39.53
2018-06-30T19:29:02.548Z,39.12
2018-06-30T19:31:31.175Z,40.27
2018-06-30T19:33:59.862Z,39.74
2018-06-30T19:36:28.299Z,40.85
2018-06-30T19:38:57.218Z,40.23
2018-06-30T19:41:25.656Z,40.85
2018-06-30T19:43:54.898Z,40.99
2018-06-30T19:46:23.313Z,41.23
2018-06-30T19:48:52.040Z,40.92
2018-06-30T19:51:20.172Z,41.65
2018-06-30T19:53:48.609Z,41.89
2018-06-30T19:56:17.720Z,41.83
2018-06-30T19:58:46.222Z,42.22
2018-06-30T20:01:14.331Z,42.02
2018-06-30T20:03:42.770Z,42.21
2018-06-30T20:06:11.336Z,42.88
2018-06-30T20:08:40.014Z,42.38
2018-06-30T20:11:08.116Z,42.86
2018-06-30T20:13:36.836Z,42.70
2018-06-30T20:16:04.915Z,42.61
2018-06-30T20:18:33.027Z,43.13
2018-06-30T20:21:01.808Z,42.92
2018-06-30T20:23:29.999Z,42.92
2018-06-30T20:25:58.131Z,43.65
2018-06-30T20:28:26.755Z,43.63
2018-06-30T20:30:55.459Z,42.76
2018-06-30T20:33:24.128Z,43.48
2018-06-30T20:35:52.767Z,43.04
2018-06-30T20:38:21.039Z,43.94
2018-06-30T20:40:49.296Z,43.48
2018-06-30T20:43:17.416Z,43.97
2018-06-30T20:45:46.403Z,43.43
2018-06-30T20:48:16.055Z,43.77
2018-06-30T20:50:45.412Z,43.59
2018-06-30T20:53:14.264Z,44.60
2018-06-30T20:55:42.607Z,43.79
2018-06-30T20:58:11.375Z,44.72
2018-06-30T21:00:39.493Z,44.76
2018-06-30T21:03:08.123Z,45.32
2018-06-30T21:05:36.465Z,45.65
2018-06-30T21:08:04.860Z,45.65
2018-06-30T21:10:33.493Z,46.18
2018-06-30T21:13:02.198Z,45.30
2018-06-30T21:15:31.180Z,45.62
2018-06-30T21:17:59.372Z,45.71
2018-06-30T21:20:27.710Z,45.91
2018-06-30T21:22:56.525Z,46.40
2018-06-30T21:25:24.967Z,46.54
2018-06-30T21:27:53.607Z,46.33
2018-06-30T21:30:22.070Z,46.43
2018-06-30T21:32:50.300Z,46.87
2018-06-30T21:35:23.518Z,47.52
2018-06-30T21:37:51.943Z,47.69
2018-06-30T21:40:20.404Z,47.43
2018-06-30T21:42:48.783Z,47.34
2018-06-30T21:45:17.876Z,48.33
2018-06-30T21:47:46.593Z,48.26
2018-06-30T21:50:15.346Z,47.80
2018-06-30T21:52:43.835Z,47.81
2018-06-30T21:55:12.155Z,48.63
2018-06-30T21:57:40.841Z,48.17
2018-06-30T22:00:12.012Z,48.83
2018-06-30T22:02:40.248Z,49.11
2018-06-30T22:05:08.813Z,49.69
2018-06-30T22:07:37.272Z,49.30
2018-06-30T22:10:06.876Z,49.12
2018-06-30T22:12:35.679Z,49.74
2018-06-30T22:15:04.196Z,49.19
2018-06-30T22:17:32.295Z,49.08
2018-06-30T22:20:00.703Z,49.51
2018-06-30T22:22:29.441Z,49.52
2018-06-30T22:24:58.176Z,49.89
2018-06-30T22:27:26.617Z,48.91
2018-06-30T22:29:55.078Z,50.15
2018-06-30T22:32:23.652Z,50.73
2018-06-30T22:34:52.323Z,51.05
2018-06-30T22:37:20.440Z,51.57
2018-06-30T22:40:00.020Z,52.18
2018-06-30T22:42:28.657Z,52.99
2018-06-30T22:44:57.000Z,52.88
2018-06-30T22:47:25.688Z,53.29
2018-06-30T22:49:53.805Z,53.24
2018-06-30T22:52:22.656Z,53.63
2018-06-30T22:54:50.766Z,53.43
2018-06-30T22:57:19.146Z,54.04
2018-06-30T22:59:47.892Z,53.91
2018-06-30T23:02:16.250Z,54.43
2018-06-30T23:04:45.917Z,54.80
2018-06-30T23:07:14.260Z,54.61
2018-06-30T23:09:42.573Z,55.41
2018-06-30T23:12:11.155Z,55.25
2018-06-30T23:14:39.981Z,54.85
2018-06-30T23:17:08.997Z,55.75
2018-06-30T23:19:37.760Z,55.75
2018-06-30T23:22:06.085Z,56.32
2018-06-30T23:24:34.717Z,56.16
2018-06-30T23:27:03.348Z,56.30
2018-06-30T23:29:31.655Z,56.52
2018-06-30T23:31:59.756Z,57.14
2018-06-30T23:34:28.245Z,57.29
2018-06-30T23:36:56.637Z,56.88
2018-06-30T23:39:24.769Z,57.45
2018-06-30T23:41:52.870Z,57.18
2018-06-30T23:44:21.591Z,57.29
2018-06-30T23:46:50.012Z,57.27
2018-06-30T23:49:18.709Z,57.86
2018-06-30T23:51:47.686Z,58.08
2018-06-30T23:54:16.107Z,58.24
2018-06-30T23:56:45.849Z,58.77
2018-06-30T23:59:14.753Z,59.12
